Jade — 9HVS8 — position and weather

sailwx.info

Track history (hours):
 
Tides and Currents Weather Stations Pressure Air Temp Water Temp Dewpoint Dewpoint Depression Visibility Wind Speed Wind Dir Waves Ship Positions

Jade

Last reported at 2014-Jul-30 13:10 UTC. Time now 2014-Jul-30 19:20 UTC.
Position N 35°52' E 015°36'.

Length 175 m; draft 8 m.

Type: Tanker. MMSI: 256491000.

Date/timePositionNaut miles runAvg speedWind from/ knotsBaromVisibWave heightAir tempDewpointWater temp
2014-Jul-30 13:10N 35°52' E 015°36'913.9
2014-Jul-30 12:33N 35°51' E 015°25'1413.8
2014-Jul-30 11:33N 35°51' E 015°08'1212.3
2014-Jul-30 10:33N 35°51' E 014°53'1 0.5
2014-Jul-30 09:33N 35°51' E 014°53'1 1.0
2014-Jul-30 08:33N 35°52' E 014°52'0 0.0
2014-Jul-30 07:33N 35°52' E 014°52'0 0.0
2014-Jul-30 06:33N 35°52' E 014°52'0 0.0
2014-Jul-30 05:33N 35°52' E 014°52'0 0.0
2014-Jul-30 04:24N 35°52' E 014°52'0 0.0
2014-Jul-30 03:25N 35°52' E 014°52'0 0.0
2014-Jul-30 02:33N 35°52' E 014°52'0 0.0
2014-Jul-30 01:33N 35°52' E 014°52'0 0.0
2014-Jul-30 00:33N 35°52' E 014°52'0 0.1
2014-Jul-29 23:33N 35°52' E 014°52'0 0.0
2014-Jul-29 22:33N 35°52' E 014°52'0 0.0
2014-Jul-29 21:33N 35°52' E 014°52'0 0.0
2014-Jul-29 20:33N 35°52' E 014°52'0 0.0
2014-Jul-29 19:33N 35°52' E 014°52'0 0.0
2014-Jul-29 18:33N 35°52' E 014°52'0 0.0
2014-Jul-29 17:33N 35°52' E 014°52'0 0.0
2014-Jul-29 16:33N 35°52' E 014°52'1 0.6
2014-Jul-29 15:33N 35°52' E 014°53'4 4.0
2014-Jul-29 14:33N 35°54' E 014°57'5 4.9
2014-Jul-29 13:33N 35°56' E 015°03'1 0.7
2014-Jul-29 12:33N 35°57' E 015°03'5 5.0
2014-Jul-29 11:33N 35°53' E 014°59'4 3.8
2014-Jul-29 10:30N 35°50' E 014°55'1 0.8
2014-Jul-29 09:33N 35°51' E 014°56'0 0.4
2014-Jul-29 08:33N 35°51' E 014°56'4 3.6
2014-Jul-29 07:33N 35°54' E 014°54'1 1.0
2014-Jul-29 06:33N 35°55' E 014°53'0 0.0
2014-Jul-29 05:33N 35°55' E 014°53'0 0.0
2014-Jul-29 04:33N 35°55' E 014°53'0 0.0
2014-Jul-29 03:33N 35°55' E 014°53'0 0.0
2014-Jul-29 02:33N 35°55' E 014°53'0 0.0
2014-Jul-29 01:33N 35°55' E 014°53'0 0.0
2014-Jul-29 00:33N 35°55' E 014°53'0 0.0
2014-Jul-28 23:33N 35°55' E 014°53'0 0.0
2014-Jul-28 21:21N 35°55' E 014°53'0 0.0
2014-Jul-28 20:33N 35°55' E 014°53'0 0.0
2014-Jul-28 19:33N 35°55' E 014°53'0 0.0
2014-Jul-28 18:33N 35°55' E 014°53'0 0.0
2014-Jul-28 17:33N 35°55' E 014°53'0 0.0
2014-Jul-28 16:33N 35°55' E 014°53'0 0.0
2014-Jul-28 15:33N 35°55' E 014°53'0 0.0
2014-Jul-28 14:33N 35°55' E 014°53'0 0.0
2014-Jul-28 13:33N 35°55' E 014°53'0 0.0
2014-Jul-28 12:27N 35°55' E 014°53'0 0.0
2014-Jul-28 11:30N 35°55' E 014°53'0 0.0
2014-Jul-28 10:33N 35°55' E 014°53'0 0.0
2014-Jul-28 09:33N 35°55' E 014°53'0 0.0
2014-Jul-28 08:30N 35°55' E 014°53'0 0.0
2014-Jul-28 07:33N 35°55' E 014°53'0 0.0
2014-Jul-28 06:33N 35°55' E 014°53'0 0.0
2014-Jul-28 05:33N 35°55' E 014°53'0 0.0
2014-Jul-28 04:33N 35°55' E 014°53'0 0.0
2014-Jul-28 03:30N 35°55' E 014°53'0 0.0
2014-Jul-28 02:33N 35°55' E 014°53'0 0.0
2014-Jul-27 20:27N 35°55' E 014°53'8 6.5
2014-Jul-27 19:14N 36°03' E 014°57'  
2014-Jul-24 12:20N 36°24' E 015°14'1114.0
2014-Jul-24 11:33N 36°16' E 015°06'1413.9
2014-Jul-24 10:33N 36°04' E 014°55'1913.9
2014-Jul-24 09:09N 35°49' E 014°40'6 9.3
2014-Jul-24 08:33N 35°49' E 014°33'  
2014-Jul-22 04:32N 35°48' E 014°54'0 0.0
2014-Jul-22 03:26N 35°48' E 014°54'0 0.0
2014-Jul-22 02:32N 35°48' E 014°54'0 0.0
2014-Jul-22 01:15N 35°48' E 014°54'10 9.9
2014-Jul-22 00:17N 35°49' E 015°06'1113.5
2014-Jul-21 23:31N 35°49' E 015°19'1313.4
2014-Jul-21 22:33N 35°50' E 015°34'1313.4
2014-Jul-21 21:33N 35°51' E 015°51'1613.3
2014-Jul-21 20:21N 35°51' E 016°11'113.5
2014-Jul-21 20:18N 35°51' E 016°12'36812.8
2014-Jul-20 15:32N 36°59' E 023°41'3314.2
2014-Jul-20 13:11N 37°27' E 024°03'  
Track history (hours):
 
Tides and Currents Weather Stations Pressure Air Temp Water Temp Dewpoint Dewpoint Depression Visibility Wind Speed Wind Dir Waves Ship Positions

Jade

Last reported at 2014-Jul-30 13:10 UTC. Time now 2014-Jul-30 19:20 UTC.
Position N 35°52' E 015°36'.

Length 175 m; draft 8 m.

Type: Tanker. MMSI: 256491000.

Date/timePositionNaut miles runAvg speedWind from/ knotsBaromVisibWave heightAir tempDewpointWater temp
2014-Jul-30 13:10N 35°52' E 015°36'913.9
2014-Jul-30 12:33N 35°51' E 015°25'1413.8
2014-Jul-30 11:33N 35°51' E 015°08'1212.3
2014-Jul-30 10:33N 35°51' E 014°53'1 0.5
2014-Jul-30 09:33N 35°51' E 014°53'1 1.0
2014-Jul-30 08:33N 35°52' E 014°52'0 0.0
2014-Jul-30 07:33N 35°52' E 014°52'0 0.0
2014-Jul-30 06:33N 35°52' E 014°52'0 0.0
2014-Jul-30 05:33N 35°52' E 014°52'0 0.0
2014-Jul-30 04:24N 35°52' E 014°52'0 0.0
2014-Jul-30 03:25N 35°52' E 014°52'0 0.0
2014-Jul-30 02:33N 35°52' E 014°52'0 0.0
2014-Jul-30 01:33N 35°52' E 014°52'0 0.0
2014-Jul-30 00:33N 35°52' E 014°52'0 0.1
2014-Jul-29 23:33N 35°52' E 014°52'0 0.0
2014-Jul-29 22:33N 35°52' E 014°52'0 0.0
2014-Jul-29 21:33N 35°52' E 014°52'0 0.0
2014-Jul-29 20:33N 35°52' E 014°52'0 0.0
2014-Jul-29 19:33N 35°52' E 014°52'0 0.0
2014-Jul-29 18:33N 35°52' E 014°52'0 0.0
2014-Jul-29 17:33N 35°52' E 014°52'0 0.0
2014-Jul-29 16:33N 35°52' E 014°52'1 0.6
2014-Jul-29 15:33N 35°52' E 014°53'4 4.0
2014-Jul-29 14:33N 35°54' E 014°57'5 4.9
2014-Jul-29 13:33N 35°56' E 015°03'1 0.7
2014-Jul-29 12:33N 35°57' E 015°03'5 5.0
2014-Jul-29 11:33N 35°53' E 014°59'4 3.8
2014-Jul-29 10:30N 35°50' E 014°55'1 0.8
2014-Jul-29 09:33N 35°51' E 014°56'0 0.4
2014-Jul-29 08:33N 35°51' E 014°56'4 3.6
2014-Jul-29 07:33N 35°54' E 014°54'1 1.0
2014-Jul-29 06:33N 35°55' E 014°53'0 0.0
2014-Jul-29 05:33N 35°55' E 014°53'0 0.0
2014-Jul-29 04:33N 35°55' E 014°53'0 0.0
2014-Jul-29 03:33N 35°55' E 014°53'0 0.0
2014-Jul-29 02:33N 35°55' E 014°53'0 0.0
2014-Jul-29 01:33N 35°55' E 014°53'0 0.0
2014-Jul-29 00:33N 35°55' E 014°53'0 0.0
2014-Jul-28 23:33N 35°55' E 014°53'0 0.0
2014-Jul-28 21:21N 35°55' E 014°53'0 0.0
2014-Jul-28 20:33N 35°55' E 014°53'0 0.0
2014-Jul-28 19:33N 35°55' E 014°53'0 0.0
2014-Jul-28 18:33N 35°55' E 014°53'0 0.0
2014-Jul-28 17:33N 35°55' E 014°53'0 0.0
2014-Jul-28 16:33N 35°55' E 014°53'0 0.0
2014-Jul-28 15:33N 35°55' E 014°53'0 0.0
2014-Jul-28 14:33N 35°55' E 014°53'0 0.0
2014-Jul-28 13:33N 35°55' E 014°53'0 0.0
2014-Jul-28 12:27N 35°55' E 014°53'0 0.0
2014-Jul-28 11:30N 35°55' E 014°53'0 0.0
2014-Jul-28 10:33N 35°55' E 014°53'0 0.0
2014-Jul-28 09:33N 35°55' E 014°53'0 0.0
2014-Jul-28 08:30N 35°55' E 014°53'0 0.0
2014-Jul-28 07:33N 35°55' E 014°53'0 0.0
2014-Jul-28 06:33N 35°55' E 014°53'0 0.0
2014-Jul-28 05:33N 35°55' E 014°53'0 0.0
2014-Jul-28 04:33N 35°55' E 014°53'0 0.0
2014-Jul-28 03:30N 35°55' E 014°53'0 0.0
2014-Jul-28 02:33N 35°55' E 014°53'0 0.0
2014-Jul-27 20:27N 35°55' E 014°53'8 6.5
2014-Jul-27 19:14N 36°03' E 014°57'  
2014-Jul-24 12:20N 36°24' E 015°14'1114.0
2014-Jul-24 11:33N 36°16' E 015°06'1413.9
2014-Jul-24 10:33N 36°04' E 014°55'1913.9
2014-Jul-24 09:09N 35°49' E 014°40'6 9.3
2014-Jul-24 08:33N 35°49' E 014°33'  
2014-Jul-22 04:32N 35°48' E 014°54'0 0.0
2014-Jul-22 03:26N 35°48' E 014°54'0 0.0
2014-Jul-22 02:32N 35°48' E 014°54'0 0.0
2014-Jul-22 01:15N 35°48' E 014°54'10 9.9
2014-Jul-22 00:17N 35°49' E 015°06'1113.5
2014-Jul-21 23:31N 35°49' E 015°19'1313.4
2014-Jul-21 22:33N 35°50' E 015°34'1313.4
2014-Jul-21 21:33N 35°51' E 015°51'1613.3
2014-Jul-21 20:21N 35°51' E 016°11'113.5
2014-Jul-21 20:18N 35°51' E 016°12'36812.8
2014-Jul-20 15:32N 36°59' E 023°41'3314.2
2014-Jul-20 13:11N 37°27' E 024°03'  

Dump ship's entire track history